sensor_id;sensor_type;location;lat;lon;timestamp;pressure;altitude;pressure_sealevel;temperature;humidity
48862;BME280;34681;49.188;-0.374;2022-10-12T00:00:51;102156.47;;;11.59;65.13
48862;BME280;34681;49.188;-0.374;2022-10-12T00:03:17;102153.81;;;11.58;65.19
48862;BME280;34681;49.188;-0.374;2022-10-12T00:05:43;102146.72;;;11.55;65.25
48862;BME280;34681;49.188;-0.374;2022-10-12T00:08:08;102145.97;;;11.53;65.08
48862;BME280;34681;49.188;-0.374;2022-10-12T00:10:39;102145.97;;;11.53;65.09
48862;BME280;34681;49.188;-0.374;2022-10-12T00:13:04;102150.94;;;11.48;65.18
48862;BME280;34681;49.188;-0.374;2022-10-12T00:15:30;102140.97;;;11.47;65.30
48862;BME280;34681;49.188;-0.374;2022-10-12T00:17:55;102138.97;;;11.49;65.01
48862;BME280;34681;49.188;-0.374;2022-10-12T00:20:20;102134.84;;;11.43;65.13
48862;BME280;34681;49.188;-0.374;2022-10-12T00:22:46;102137.59;;;11.43;65.19
48862;BME280;34681;49.188;-0.374;2022-10-12T00:25:11;102134.84;;;11.43;65.32
48862;BME280;34681;49.188;-0.374;2022-10-12T00:27:36;102136.72;;;11.43;65.20
48862;BME280;34681;49.188;-0.374;2022-10-12T00:30:02;102128.38;;;11.44;64.88
48862;BME280;34681;49.188;-0.374;2022-10-12T00:32:28;102130.25;;;11.44;65.04
48862;BME280;34681;49.188;-0.374;2022-10-12T00:34:53;102130.25;;;11.44;64.87
48862;BME280;34681;49.188;-0.374;2022-10-12T00:37:18;102126.63;;;11.43;64.83
48862;BME280;34681;49.188;-0.374;2022-10-12T00:39:44;102133.13;;;11.42;64.97
48862;BME280;34681;49.188;-0.374;2022-10-12T00:42:10;102127.84;;;11.39;64.62
48862;BME280;34681;49.188;-0.374;2022-10-12T00:44:43;102134.19;;;11.40;64.86
48862;BME280;34681;49.188;-0.374;2022-10-12T00:49:48;102136.31;;;11.36;64.73
48862;BME280;34681;49.188;-0.374;2022-10-12T00:52:19;102136.31;;;11.36;64.56
48862;BME280;34681;49.188;-0.374;2022-10-12T00:54:48;102138.19;;;11.36;64.61
48862;BME280;34681;49.188;-0.374;2022-10-12T00:57:17;102140.28;;;11.32;64.98
48862;BME280;34681;49.188;-0.374;2022-10-12T00:59:55;102140.81;;;11.37;64.99
48862;BME280;34681;49.188;-0.374;2022-10-12T01:02:23;102142.66;;;11.37;64.99
48862;BME280;34681;49.188;-0.374;2022-10-12T01:04:50;102142.28;;;11.41;64.77
48862;BME280;34681;49.188;-0.374;2022-10-12T01:07:16;102144.94;;;11.43;64.44
48862;BME280;34681;49.188;-0.374;2022-10-12T01:09:41;102127.09;;;11.37;64.77
48862;BME280;34681;49.188;-0.374;2022-10-12T01:12:08;102132.34;;;11.40;64.35
48862;BME280;34681;49.188;-0.374;2022-10-12T01:14:34;102124.34;;;11.37;64.51
48862;BME280;34681;49.188;-0.374;2022-10-12T01:17:06;102124.47;;;11.36;64.67
48862;BME280;34681;49.188;-0.374;2022-10-12T01:22:23;102123.44;;;11.25;64.41
48862;BME280;34681;49.188;-0.374;2022-10-12T01:32:32;102116.78;;;11.17;65.00
48862;BME280;34681;49.188;-0.374;2022-10-12T01:35:11;102111.09;;;11.20;65.01
48862;BME280;34681;49.188;-0.374;2022-10-12T01:40:20;102102.13;;;11.18;64.87
48862;BME280;34681;49.188;-0.374;2022-10-12T01:42:48;102109.47;;;11.17;64.79
48862;BME280;34681;49.188;-0.374;2022-10-12T01:45:16;102098.38;;;11.19;64.66
48862;BME280;34681;49.188;-0.374;2022-10-12T01:47:44;102098.72;;;11.14;64.86
48862;BME280;34681;49.188;-0.374;2022-10-12T01:50:13;102094.25;;;11.13;64.96
48862;BME280;34681;49.188;-0.374;2022-10-12T01:55:49;102091.75;;;11.10;65.08
48862;BME280;34681;49.188;-0.374;2022-10-12T01:58:32;102096.72;;;11.16;64.95
48862;BME280;34681;49.188;-0.374;2022-10-12T02:03:44;102087.88;;;11.13;64.89
48862;BME280;34681;49.188;-0.374;2022-10-12T02:06:15;102086.03;;;11.13;64.77
48862;BME280;34681;49.188;-0.374;2022-10-12T02:11:19;102079.53;;;11.14;64.30
48862;BME280;34681;49.188;-0.374;2022-10-12T02:13:51;102079.06;;;11.09;64.78
48862;BME280;34681;49.188;-0.374;2022-10-12T02:16:20;102085.41;;;11.10;64.52
48862;BME280;34681;49.188;-0.374;2022-10-12T02:18:51;102083.53;;;11.10;64.70
48862;BME280;34681;49.188;-0.374;2022-10-12T02:21:22;102075.31;;;11.10;64.65
48862;BME280;34681;49.188;-0.374;2022-10-12T02:23:51;102077.94;;;11.12;64.57
48862;BME280;34681;49.188;-0.374;2022-10-12T02:26:18;102077.19;;;11.10;64.37
48862;BME280;34681;49.188;-0.374;2022-10-12T02:28:45;102073.03;;;11.04;64.93
48862;BME280;34681;49.188;-0.374;2022-10-12T02:31:31;102073.44;;;11.11;64.53
48862;BME280;34681;49.188;-0.374;2022-10-12T02:34:23;102054.16;;;11.12;64.61
48862;BME280;34681;49.188;-0.374;2022-10-12T02:37:03;102061.50;;;11.12;64.44
48862;BME280;34681;49.188;-0.374;2022-10-12T02:39:34;102062.50;;;11.11;64.50
48862;BME280;34681;49.188;-0.374;2022-10-12T02:42:09;102060.22;;;11.05;64.60
48862;BME280;34681;49.188;-0.374;2022-10-12T02:44:38;102060.22;;;11.05;64.56
48862;BME280;34681;49.188;-0.374;2022-10-12T02:47:06;102059.34;;;11.04;64.71
48862;BME280;34681;49.188;-0.374;2022-10-12T02:49:33;102058.09;;;11.08;64.72
48862;BME280;34681;49.188;-0.374;2022-10-12T02:52:00;102053.50;;;11.09;64.84
48862;BME280;34681;49.188;-0.374;2022-10-12T02:54:27;102058.75;;;11.12;64.53
48862;BME280;34681;49.188;-0.374;2022-10-12T02:56:53;102054.91;;;11.14;64.61
48862;BME280;34681;49.188;-0.374;2022-10-12T02:59:18;102055.75;;;11.15;64.69
48862;BME280;34681;49.188;-0.374;2022-10-12T03:01:44;102046.81;;;11.13;64.80
48862;BME280;34681;49.188;-0.374;2022-10-12T03:04:10;102043.47;;;11.20;64.50
48862;BME280;34681;49.188;-0.374;2022-10-12T03:06:35;102042.72;;;11.18;64.51
48862;BME280;34681;49.188;-0.374;2022-10-12T03:09:01;102036.59;;;11.15;64.70
48862;BME280;34681;49.188;-0.374;2022-10-12T03:11:26;102034.50;;;11.18;64.61
48862;BME280;34681;49.188;-0.374;2022-10-12T03:13:56;102033.63;;;11.18;64.50
48862;BME280;34681;49.188;-0.374;2022-10-12T03:16:22;102030.38;;;11.13;64.41
48862;BME280;34681;49.188;-0.374;2022-10-12T03:18:48;102035.97;;;11.11;64.31
48862;BME280;34681;49.188;-0.374;2022-10-12T03:21:14;102036.09;;;11.10;64.58
48862;BME280;34681;49.188;-0.374;2022-10-12T03:23:39;102032.56;;;11.08;64.42
48862;BME280;34681;49.188;-0.374;2022-10-12T03:26:05;102031.69;;;11.07;64.28
48862;BME280;34681;49.188;-0.374;2022-10-12T03:28:31;102039.16;;;11.05;64.59
48862;BME280;34681;49.188;-0.374;2022-10-12T03:30:57;102029.34;;;11.03;64.68
48862;BME280;34681;49.188;-0.374;2022-10-12T03:33:23;102026.72;;;11.01;64.50
48862;BME280;34681;49.188;-0.374;2022-10-12T03:35:49;102029.69;;;10.98;64.43
48862;BME280;34681;49.188;-0.374;2022-10-12T03:38:15;102031.78;;;10.94;64.50
48862;BME280;34681;49.188;-0.374;2022-10-12T03:40:41;102023.78;;;10.91;64.48
48862;BME280;34681;49.188;-0.374;2022-10-12T03:43:07;102031.25;;;10.89;64.46
48862;BME280;34681;49.188;-0.374;2022-10-12T03:45:33;102022.53;;;10.84;64.57
48862;BME280;34681;49.188;-0.374;2022-10-12T03:47:58;102023.50;;;10.83;64.48
48862;BME280;34681;49.188;-0.374;2022-10-12T03:50:24;102024.75;;;10.79;64.56
48862;BME280;34681;49.188;-0.374;2022-10-12T03:52:49;102023.00;;;10.78;64.52
48862;BME280;34681;49.188;-0.374;2022-10-12T03:55:15;102025.00;;;10.76;64.37
48862;BME280;34681;49.188;-0.374;2022-10-12T03:57:40;102028.81;;;10.74;64.59
48862;BME280;34681;49.188;-0.374;2022-10-12T04:00:06;102032.91;;;10.68;64.75
48862;BME280;34681;49.188;-0.374;2022-10-12T04:02:31;102037.53;;;10.67;64.47
48862;BME280;34681;49.188;-0.374;2022-10-12T04:04:57;102034.88;;;10.66;64.57
48862;BME280;34681;49.188;-0.374;2022-10-12T04:07:22;102034.13;;;10.64;64.71
48862;BME280;34681;49.188;-0.374;2022-10-12T04:09:47;102035.44;;;10.58;64.82
48862;BME280;34681;49.188;-0.374;2022-10-12T04:12:13;102031.84;;;10.58;64.75
48862;BME280;34681;49.188;-0.374;2022-10-12T04:14:39;102038.31;;;10.57;64.83
48862;BME280;34681;49.188;-0.374;2022-10-12T04:17:04;102042.78;;;10.58;64.76
48862;BME280;34681;49.188;-0.374;2022-10-12T04:19:30;102040.16;;;10.56;65.02
48862;BME280;34681;49.188;-0.374;2022-10-12T04:21:55;102036.81;;;10.53;65.03
48862;BME280;34681;49.188;-0.374;2022-10-12T04:24:20;102047.75;;;10.53;65.19
48862;BME280;34681;49.188;-0.374;2022-10-12T04:26:46;102043.03;;;10.55;64.90
48862;BME280;34681;49.188;-0.374;2022-10-12T04:29:11;102035.06;;;10.52;65.07
48862;BME280;34681;49.188;-0.374;2022-10-12T04:31:40;102041.41;;;10.52;64.98
48862;BME280;34681;49.188;-0.374;2022-10-12T04:34:06;102035.16;;;10.50;64.94
48862;BME280;34681;49.188;-0.374;2022-10-12T04:36:31;102034.41;;;10.48;65.21
48862;BME280;34681;49.188;-0.374;2022-10-12T04:38:56;102035.16;;;10.50;65.06
48862;BME280;34681;49.188;-0.374;2022-10-12T04:41:22;102037.88;;;10.50;65.21
48862;BME280;34681;49.188;-0.374;2022-10-12T04:43:47;102043.59;;;10.47;65.13
48862;BME280;34681;49.188;-0.374;2022-10-12T04:46:12;102040.88;;;10.47;65.20
48862;BME280;34681;49.188;-0.374;2022-10-12T04:48:38;102043.72;;;10.46;65.47
48862;BME280;34681;49.188;-0.374;2022-10-12T04:51:04;102044.47;;;10.48;65.30
48862;BME280;34681;49.188;-0.374;2022-10-12T04:53:29;102040.97;;;10.46;65.23
48862;BME280;34681;49.188;-0.374;2022-10-12T04:55:55;102034.84;;;10.42;65.25
48862;BME280;34681;49.188;-0.374;2022-10-12T04:58:21;102040.22;;;10.44;65.18
48862;BME280;34681;49.188;-0.374;2022-10-12T05:00:47;102037.59;;;10.42;65.09
48862;BME280;34681;49.188;-0.374;2022-10-12T05:03:13;102039.69;;;10.38;65.45
48862;BME280;34681;49.188;-0.374;2022-10-12T05:05:39;102043.06;;;10.42;65.19
48862;BME280;34681;49.188;-0.374;2022-10-12T05:08:04;102034.22;;;10.38;65.31
48862;BME280;34681;49.188;-0.374;2022-10-12T05:10:30;102044.16;;;10.39;65.30
48862;BME280;34681;49.188;-0.374;2022-10-12T05:12:55;102032.59;;;10.36;65.55
48862;BME280;34681;49.188;-0.374;2022-10-12T05:15:20;102039.06;;;10.35;65.46
48862;BME280;34681;49.188;-0.374;2022-10-12T05:17:46;102047.25;;;10.35;65.56
48862;BME280;34681;49.188;-0.374;2022-10-12T05:20:11;102039.94;;;10.35;65.66
48862;BME280;34681;49.188;-0.374;2022-10-12T05:22:37;102048.78;;;10.39;65.74
48862;BME280;34681;49.188;-0.374;2022-10-12T05:25:03;102048.03;;;10.37;65.58
48862;BME280;34681;49.188;-0.374;2022-10-12T05:27:28;102041.56;;;10.38;65.60
48862;BME280;34681;49.188;-0.374;2022-10-12T05:29:54;102043.31;;;10.39;65.42
48862;BME280;34681;49.188;-0.374;2022-10-12T05:32:20;102040.69;;;10.37;65.52
48862;BME280;34681;49.188;-0.374;2022-10-12T05:34:46;102042.34;;;10.27;65.83
48862;BME280;34681;49.188;-0.374;2022-10-12T05:37:11;102049.88;;;10.36;65.75
48862;BME280;34681;49.188;-0.374;2022-10-12T05:39:36;102054.00;;;10.42;65.68
48862;BME280;34681;49.188;-0.374;2022-10-12T05:42:02;102054.66;;;10.46;65.65
48862;BME280;34681;49.188;-0.374;2022-10-12T05:44:28;102051.94;;;10.46;65.72
48862;BME280;34681;49.188;-0.374;2022-10-12T05:46:53;102052.91;;;10.45;65.66
48862;BME280;34681;49.188;-0.374;2022-10-12T05:49:19;102059.78;;;10.50;65.28
48862;BME280;34681;49.188;-0.374;2022-10-12T05:51:44;102060.91;;;10.48;65.77
48862;BME280;34681;49.188;-0.374;2022-10-12T05:54:09;102058.81;;;10.51;65.46
48862;BME280;34681;49.188;-0.374;2022-10-12T05:56:35;102053.78;;;10.45;65.72
48862;BME280;34681;49.188;-0.374;2022-10-12T05:59:00;102049.19;;;10.46;65.72
48862;BME280;34681;49.188;-0.374;2022-10-12T06:01:27;102058.28;;;10.46;65.63
48862;BME280;34681;49.188;-0.374;2022-10-12T06:03:53;102054.44;;;10.49;65.46
48862;BME280;34681;49.188;-0.374;2022-10-12T06:06:19;102059.78;;;10.50;65.53
48862;BME280;34681;49.188;-0.374;2022-10-12T06:08:44;102061.75;;;10.48;65.66
48862;BME280;34681;49.188;-0.374;2022-10-12T06:11:10;102057.03;;;10.50;65.54
48862;BME280;34681;49.188;-0.374;2022-10-12T06:13:35;102060.31;;;10.55;65.44
48862;BME280;34681;49.188;-0.374;2022-10-12T06:16:00;102063.06;;;10.55;65.57
48862;BME280;34681;49.188;-0.374;2022-10-12T06:18:26;102058.88;;;10.62;65.83
48862;BME280;34681;49.188;-0.374;2022-10-12T06:20:53;102062.97;;;10.81;65.60
48862;BME280;34681;49.188;-0.374;2022-10-12T06:23:19;102063.25;;;10.89;65.40
48862;BME280;34681;49.188;-0.374;2022-10-12T06:25:50;102066.94;;;11.01;65.09
48862;BME280;34681;49.188;-0.374;2022-10-12T06:28:17;102075.41;;;11.09;65.29
48862;BME280;34681;49.188;-0.374;2022-10-12T06:30:44;102060.16;;;11.17;65.38
48862;BME280;34681;49.188;-0.374;2022-10-12T06:33:10;102057.78;;;11.24;65.04
48862;BME280;34681;49.188;-0.374;2022-10-12T06:35:35;102061.06;;;11.29;64.93
48862;BME280;34681;49.188;-0.374;2022-10-12T06:38:01;102052.59;;;11.32;64.54
48862;BME280;34681;49.188;-0.374;2022-10-12T06:40:26;102061.47;;;11.36;64.47
48862;BME280;34681;49.188;-0.374;2022-10-12T06:42:51;102069.94;;;11.44;64.08
48862;BME280;34681;49.188;-0.374;2022-10-12T06:45:17;102064.88;;;11.50;64.02
48862;BME280;34681;49.188;-0.374;2022-10-12T06:47:43;102061.75;;;11.55;64.19
48862;BME280;34681;49.188;-0.374;2022-10-12T06:50:09;102054.25;;;11.57;63.96
48862;BME280;34681;49.188;-0.374;2022-10-12T06:52:35;102057.28;;;11.65;63.54
48862;BME280;34681;49.188;-0.374;2022-10-12T06:55:01;102052.81;;;11.75;63.31
48862;BME280;34681;49.188;-0.374;2022-10-12T06:57:26;102062.97;;;11.86;62.87
48862;BME280;34681;49.188;-0.374;2022-10-12T06:59:51;102058.97;;;12.01;62.26
48862;BME280;34681;49.188;-0.374;2022-10-12T07:02:17;102066.47;;;12.11;62.18
48862;BME280;34681;49.188;-0.374;2022-10-12T07:04:42;102064.22;;;12.27;61.72
48862;BME280;34681;49.188;-0.374;2022-10-12T07:07:07;102055.19;;;12.47;61.80
48862;BME280;34681;49.188;-0.374;2022-10-12T07:09:33;102056.03;;;12.70;61.17
48862;BME280;34681;49.188;-0.374;2022-10-12T07:11:58;102062.97;;;12.85;60.94
48862;BME280;34681;49.188;-0.374;2022-10-12T07:14:23;102070.88;;;13.11;60.51
48862;BME280;34681;49.188;-0.374;2022-10-12T07:16:49;102064.56;;;13.31;59.81
48862;BME280;34681;49.188;-0.374;2022-10-12T07:19:15;102072.91;;;13.41;59.39
48862;BME280;34681;49.188;-0.374;2022-10-12T07:21:40;102073.50;;;13.44;59.58
48862;BME280;34681;49.188;-0.374;2022-10-12T07:24:06;102080.78;;;13.55;59.71
48862;BME280;34681;49.188;-0.374;2022-10-12T07:26:31;102073.09;;;13.70;59.36
48862;BME280;34681;49.188;-0.374;2022-10-12T07:28:57;102075.25;;;13.66;59.41
48862;BME280;34681;49.188;-0.374;2022-10-12T07:31:23;102071.69;;;13.55;59.69
48862;BME280;34681;49.188;-0.374;2022-10-12T07:33:48;102069.59;;;13.47;59.85
48862;BME280;34681;49.188;-0.374;2022-10-12T07:36:14;102056.50;;;13.39;60.07
48862;BME280;34681;49.188;-0.374;2022-10-12T07:38:40;102060.13;;;13.40;60.18
48862;BME280;34681;49.188;-0.374;2022-10-12T07:41:09;102061.34;;;13.47;60.04
48862;BME280;34681;49.188;-0.374;2022-10-12T07:43:34;102059.41;;;13.59;59.56
48862;BME280;34681;49.188;-0.374;2022-10-12T07:46:00;102072.41;;;13.57;59.58
48862;BME280;34681;49.188;-0.374;2022-10-12T07:48:25;102079.47;;;13.70;59.15
48862;BME280;34681;49.188;-0.374;2022-10-12T07:50:51;102076.50;;;13.62;59.24
48862;BME280;34681;49.188;-0.374;2022-10-12T07:53:16;102082.44;;;13.58;59.26
48862;BME280;34681;49.188;-0.374;2022-10-12T07:55:41;102079.47;;;13.49;59.38
48862;BME280;34681;49.188;-0.374;2022-10-12T07:58:07;102072.00;;;13.40;59.61
48862;BME280;34681;49.188;-0.374;2022-10-12T08:00:32;102078.06;;;13.34;59.78
48862;BME280;34681;49.188;-0.374;2022-10-12T08:02:58;102083.69;;;13.33;60.17
48862;BME280;34681;49.188;-0.374;2022-10-12T08:05:24;102081.41;;;13.59;59.89
48862;BME280;34681;49.188;-0.374;2022-10-12T08:07:50;102071.94;;;13.72;59.63
48862;BME280;34681;49.188;-0.374;2022-10-12T08:10:16;102089.25;;;13.63;59.46
48862;BME280;34681;49.188;-0.374;2022-10-12T08:12:43;102087.94;;;13.58;60.07
48862;BME280;34681;49.188;-0.374;2022-10-12T08:15:10;102085.97;;;13.69;60.15
48862;BME280;34681;49.188;-0.374;2022-10-12T08:17:35;102093.69;;;13.75;60.17
48862;BME280;34681;49.188;-0.374;2022-10-12T08:20:01;102096.28;;;13.98;59.62
48862;BME280;34681;49.188;-0.374;2022-10-12T08:22:26;102090.41;;;14.12;59.24
48862;BME280;34681;49.188;-0.374;2022-10-12T08:24:52;102097.59;;;14.24;58.89
48862;BME280;34681;49.188;-0.374;2022-10-12T08:27:17;102098.53;;;14.44;58.65
48862;BME280;34681;49.188;-0.374;2022-10-12T08:29:42;102096.88;;;14.63;58.58
48862;BME280;34681;49.188;-0.374;2022-10-12T08:32:08;102107.81;;;14.83;58.00
48862;BME280;34681;49.188;-0.374;2022-10-12T08:34:33;102101.75;;;14.89;57.77
48862;BME280;34681;49.188;-0.374;2022-10-12T08:36:59;102105.69;;;15.06;57.50
48862;BME280;34681;49.188;-0.374;2022-10-12T08:39:24;102094.81;;;15.24;57.42
48862;BME280;34681;49.188;-0.374;2022-10-12T08:46:59;102098.59;;;15.33;57.29
48862;BME280;34681;49.188;-0.374;2022-10-12T08:49:27;102090.59;;;15.59;56.92
48862;BME280;34681;49.188;-0.374;2022-10-12T08:51:58;102096.38;;;15.85;56.61
48862;BME280;34681;49.188;-0.374;2022-10-12T08:54:28;102087.66;;;16.64;55.49
48862;BME280;34681;49.188;-0.374;2022-10-12T08:56:56;102082.22;;;17.17;54.39
48862;BME280;34681;49.188;-0.374;2022-10-12T08:59:22;102089.34;;;17.73;53.37
48862;BME280;34681;49.188;-0.374;2022-10-12T09:02:24;102094.72;;;17.75;53.16
48862;BME280;34681;49.188;-0.374;2022-10-12T09:05:14;102089.81;;;17.33;53.77
48862;BME280;34681;49.188;-0.374;2022-10-12T09:07:49;102084.38;;;17.05;54.90
48862;BME280;34681;49.188;-0.374;2022-10-12T09:10:42;102080.69;;;16.87;55.01
48862;BME280;34681;49.188;-0.374;2022-10-12T09:16:05;102071.41;;;16.88;55.92
48862;BME280;34681;49.188;-0.374;2022-10-12T09:18:39;102070.94;;;17.10;55.68
48862;BME280;34681;49.188;-0.374;2022-10-12T09:21:07;102067.69;;;17.33;55.76
48862;BME280;34681;49.188;-0.374;2022-10-12T09:23:40;102061.28;;;17.50;55.47
48862;BME280;34681;49.188;-0.374;2022-10-12T09:26:15;102062.56;;;17.38;55.51
48862;BME280;34681;49.188;-0.374;2022-10-12T09:28:53;102060.56;;;17.12;56.34
48862;BME280;34681;49.188;-0.374;2022-10-12T09:34:02;102054.81;;;17.06;57.14
48862;BME280;34681;49.188;-0.374;2022-10-12T09:36:40;102061.75;;;17.28;56.73
48862;BME280;34681;49.188;-0.374;2022-10-12T09:39:18;102049.84;;;17.09;57.52
48862;BME280;34681;49.188;-0.374;2022-10-12T09:41:45;102054.41;;;16.83;58.47
48862;BME280;34681;49.188;-0.374;2022-10-12T09:44:40;102051.88;;;16.72;58.40
48862;BME280;34681;49.188;-0.374;2022-10-12T09:49:56;102040.78;;;16.17;60.42
48862;BME280;34681;49.188;-0.374;2022-10-12T09:52:48;102034.50;;;16.24;60.45
48862;BME280;34681;49.188;-0.374;2022-10-12T09:57:50;102033.59;;;16.34;60.72
48862;BME280;34681;49.188;-0.374;2022-10-12T10:00:28;102030.91;;;16.42;60.95
48862;BME280;34681;49.188;-0.374;2022-10-12T10:02:55;102027.75;;;16.37;61.83
48862;BME280;34681;49.188;-0.374;2022-10-12T10:05:25;102031.34;;;16.47;61.57
48862;BME280;34681;49.188;-0.374;2022-10-12T10:07:50;102027.03;;;16.35;62.01
48862;BME280;34681;49.188;-0.374;2022-10-12T10:10:23;102029.31;;;16.67;61.88
48862;BME280;34681;49.188;-0.374;2022-10-12T10:12:52;102028.13;;;16.97;61.55
48862;BME280;34681;49.188;-0.374;2022-10-12T10:15:21;102019.91;;;17.05;61.83
48862;BME280;34681;49.188;-0.374;2022-10-12T10:17:53;102015.94;;;17.25;61.74
48862;BME280;34681;49.188;-0.374;2022-10-12T10:20:42;102007.19;;;17.56;61.46
48862;BME280;34681;49.188;-0.374;2022-10-12T10:23:23;102004.75;;;18.05;60.80
48862;BME280;34681;49.188;-0.374;2022-10-12T10:26:05;102018.00;;;18.27;60.23
48862;BME280;34681;49.188;-0.374;2022-10-12T10:28:35;102023.44;;;18.79;59.52
48862;BME280;34681;49.188;-0.374;2022-10-12T10:31:17;102028.47;;;18.92;59.40
48862;BME280;34681;49.188;-0.374;2022-10-12T10:36:43;102029.19;;;19.10;58.88
48862;BME280;34681;49.188;-0.374;2022-10-12T10:39:45;102035.56;;;19.02;58.93
48862;BME280;34681;49.188;-0.374;2022-10-12T10:42:17;102033.31;;;18.90;59.65
48862;BME280;34681;49.188;-0.374;2022-10-12T10:45:00;102030.63;;;18.64;60.08
48862;BME280;34681;49.188;-0.374;2022-10-12T10:47:27;102022.16;;;18.23;61.29
48862;BME280;34681;49.188;-0.374;2022-10-12T10:49:57;102026.88;;;17.96;62.46
48862;BME280;34681;49.188;-0.374;2022-10-12T10:52:32;102033.31;;;18.05;62.22
48862;BME280;34681;49.188;-0.374;2022-10-12T10:57:32;102040.19;;;18.01;62.80
48862;BME280;34681;49.188;-0.374;2022-10-12T11:00:10;102051.19;;;18.53;61.80
48862;BME280;34681;49.188;-0.374;2022-10-12T11:02:54;102053.44;;;19.08;61.52
48862;BME280;34681;49.188;-0.374;2022-10-12T11:07:52;102045.00;;;19.58;60.17
48862;BME280;34681;49.188;-0.374;2022-10-12T11:10:32;102033.53;;;19.86;58.50
48862;BME280;34681;49.188;-0.374;2022-10-12T11:13:26;102047.22;;;20.04;57.84
48862;BME280;34681;49.188;-0.374;2022-10-12T11:18:44;102046.88;;;19.90;58.31
48862;BME280;34681;49.188;-0.374;2022-10-12T11:21:15;102058.00;;;19.74;58.39
48862;BME280;34681;49.188;-0.374;2022-10-12T11:26:30;102052.25;;;19.51;58.61
48862;BME280;34681;49.188;-0.374;2022-10-12T11:28:59;102064.94;;;19.38;58.68
48862;BME280;34681;49.188;-0.374;2022-10-12T11:31:38;102046.38;;;19.46;59.22
48862;BME280;34681;49.188;-0.374;2022-10-12T11:34:15;102042.19;;;19.42;59.77
48862;BME280;34681;49.188;-0.374;2022-10-12T11:36:43;102043.44;;;19.48;59.68
48862;BME280;34681;49.188;-0.374;2022-10-12T11:39:31;102036.00;;;19.56;59.86
48862;BME280;34681;49.188;-0.374;2022-10-12T11:42:00;102044.66;;;19.53;60.25
48862;BME280;34681;49.188;-0.374;2022-10-12T11:44:41;102048.59;;;19.18;61.09
48862;BME280;34681;49.188;-0.374;2022-10-12T11:50:29;102048.59;;;19.10;60.85
48862;BME280;34681;49.188;-0.374;2022-10-12T11:53:00;102042.00;;;19.03;61.32
48862;BME280;34681;49.188;-0.374;2022-10-12T11:55:30;102044.97;;;19.18;61.22
48862;BME280;34681;49.188;-0.374;2022-10-12T11:58:11;102046.56;;;19.20;61.44
48862;BME280;34681;49.188;-0.374;2022-10-12T12:01:09;102037.84;;;19.07;61.62
48862;BME280;34681;49.188;-0.374;2022-10-12T12:11:22;102028.25;;;18.35;63.06
48862;BME280;34681;49.188;-0.374;2022-10-12T12:13:47;102026.53;;;18.34;63.01
48862;BME280;34681;49.188;-0.374;2022-10-12T12:19:12;102030.19;;;18.42;63.23
48862;BME280;34681;49.188;-0.374;2022-10-12T12:24:37;102022.03;;;18.33;63.53
48862;BME280;34681;49.188;-0.374;2022-10-12T12:29:50;102001.84;;;18.57;62.84
48862;BME280;34681;49.188;-0.374;2022-10-12T12:32:15;101994.03;;;18.60;62.30
48862;BME280;34681;49.188;-0.374;2022-10-12T12:34:53;101993.59;;;18.73;61.67
48862;BME280;34681;49.188;-0.374;2022-10-12T12:37:21;101986.44;;;18.62;60.91
48862;BME280;34681;49.188;-0.374;2022-10-12T12:39:57;101982.69;;;18.79;60.88
48862;BME280;34681;49.188;-0.374;2022-10-12T12:42:26;101977.16;;;18.79;61.07
48862;BME280;34681;49.188;-0.374;2022-10-12T12:44:52;101983.22;;;18.91;59.85
48862;BME280;34681;49.188;-0.374;2022-10-12T12:47:37;101958.97;;;19.26;59.44
48862;BME280;34681;49.188;-0.374;2022-10-12T12:50:33;101952.03;;;19.22;59.24
48862;BME280;34681;49.188;-0.374;2022-10-12T12:53:05;101943.72;;;19.05;59.13
48862;BME280;34681;49.188;-0.374;2022-10-12T13:15:05;101936.25;;;19.39;58.76
48862;BME280;34681;49.188;-0.374;2022-10-12T13:17:42;101944.91;;;19.27;58.47
48862;BME280;34681;49.188;-0.374;2022-10-12T13:20:19;101943.03;;;19.20;58.99
48862;BME280;34681;49.188;-0.374;2022-10-12T13:22:47;101931.03;;;19.11;59.35
48862;BME280;34681;49.188;-0.374;2022-10-12T13:25:35;101931.56;;;19.15;58.55
48862;BME280;34681;49.188;-0.374;2022-10-12T13:28:06;101925.84;;;19.16;58.85
48862;BME280;34681;49.188;-0.374;2022-10-12T13:35:53;101931.53;;;19.55;56.52
48862;BME280;34681;49.188;-0.374;2022-10-12T13:38:26;101927.69;;;19.73;56.49
48862;BME280;34681;49.188;-0.374;2022-10-12T13:40:59;101919.41;;;20.04;55.70
48862;BME280;34681;49.188;-0.374;2022-10-12T13:46:35;101928.00;;;19.86;56.49
48862;BME280;34681;49.188;-0.374;2022-10-12T13:49:03;101926.16;;;19.62;56.71
48862;BME280;34681;49.188;-0.374;2022-10-12T13:51:36;101931.53;;;19.63;56.53
48862;BME280;34681;49.188;-0.374;2022-10-12T13:54:01;101925.78;;;19.65;57.22
48862;BME280;34681;49.188;-0.374;2022-10-12T13:56:38;101929.81;;;19.46;57.77
48862;BME280;34681;49.188;-0.374;2022-10-12T13:59:04;101929.28;;;19.34;57.88
48862;BME280;34681;49.188;-0.374;2022-10-12T14:01:30;101922.56;;;19.29;57.84
48862;BME280;34681;49.188;-0.374;2022-10-12T14:04:03;101925.47;;;19.27;58.61
48862;BME280;34681;49.188;-0.374;2022-10-12T14:06:34;101916.81;;;19.30;58.66
48862;BME280;34681;49.188;-0.374;2022-10-12T14:09:11;101906.75;;;19.38;58.30
48862;BME280;34681;49.188;-0.374;2022-10-12T14:11:39;101900.00;;;19.24;58.13
48862;BME280;34681;49.188;-0.374;2022-10-12T14:14:12;101891.69;;;19.07;58.31
48862;BME280;34681;49.188;-0.374;2022-10-12T14:16:41;101890.84;;;18.99;58.84
48862;BME280;34681;49.188;-0.374;2022-10-12T14:19:20;101901.22;;;19.29;58.38
48862;BME280;34681;49.188;-0.374;2022-10-12T14:21:46;101895.31;;;19.32;58.41
48862;BME280;34681;49.188;-0.374;2022-10-12T14:24:17;101906.53;;;19.63;57.09
48862;BME280;34681;49.188;-0.374;2022-10-12T14:26:51;101904.41;;;19.74;57.13
48862;BME280;34681;49.188;-0.374;2022-10-12T14:29:44;101899.09;;;19.48;58.10
48862;BME280;34681;49.188;-0.374;2022-10-12T14:37:18;101889.88;;;19.55;57.60